Time;durP1;ratioP1;P1;durP2;ratioP2;P2;SDS_P1;SDS_P2;PMS_P1;PMS_P2;Temp;Humidity;BMP_temperature;BMP_pressure;BME280_temperature;BME280_humidity;BME280_pressure;Samples;Min_cycle;Max_cycle;Signal;HPM_P1;HPM_P2
2022/08/02 00:01:45;;;;;;;8.00;4.40;;;;;;;;;;5072046;28;20174;-76
2022/08/02 00:04:12;;;;;;;10.03;4.93;;;;;;;;;;5071800;28;20188;-76
2022/08/02 00:06:39;;;;;;;7.43;4.70;;;;;;;;;;5053931;28;20197;-76
2022/08/02 00:09:05;;;;;;;8.50;4.57;;;;;;;;;;5071765;28;20194;-76
2022/08/02 00:11:32;;;;;;;8.77;5.27;;;;;;;;;;5054476;28;20281;-76
2022/08/02 00:13:59;;;;;;;6.77;4.27;;;;;;;;;;5071672;28;20210;-76
2022/08/02 00:16:26;;;;;;;6.30;4.47;;;;;;;;;;5053082;28;20599;-76
2022/08/02 00:19:04;;;;;;;6.63;3.70;;;;;;;;;;5055507;28;20602;-76
2022/08/02 00:21:31;;;;;;;6.70;4.23;;;;;;;;;;5071738;28;20174;-76
2022/08/02 00:23:57;;;;;;;7.90;4.50;;;;;;;;;;5071471;28;20240;-76
2022/08/02 00:26:46;;;;;;;6.70;3.80;;;;;;;;;;5087051;28;20190;-76
2022/08/02 00:29:13;;;;;;;5.93;4.20;;;;;;;;;;5090912;28;20193;-76
2022/08/02 00:31:40;;;;;;;10.37;5.80;;;;;;;;;;5073513;28;20197;-76
2022/08/02 00:34:07;;;;;;;8.17;4.70;;;;;;;;;;5073584;28;20194;-76
2022/08/02 00:36:54;;;;;;;11.20;4.10;;;;;;;;;;5059761;28;20215;-76
2022/08/02 00:39:21;;;;;;;6.23;3.50;;;;;;;;;;5091424;28;20288;-76
2022/08/02 00:42:01;;;;;;;6.90;4.43;;;;;;;;;;5091598;28;20185;-76
2022/08/02 00:44:27;;;;;;;6.30;3.70;;;;;;;;;;5073778;28;20604;-76
2022/08/02 00:46:54;;;;;;;5.53;3.37;;;;;;;;;;5091641;28;20194;-76
2022/08/02 00:49:21;;;;;;;6.20;3.90;;;;;;;;;;5091171;28;20605;-76
2022/08/02 00:51:48;;;;;;;4.40;4.00;;;;;;;;;;5091525;28;20189;-75
2022/08/02 00:54:15;;;;;;;7.33;4.53;;;;;;;;;;5091123;28;20678;-76
2022/08/02 00:56:42;;;;;;;7.07;5.00;;;;;;;;;;5091288;28;20520;-76
2022/08/02 00:59:16;;;;;;;6.13;5.13;;;;;;;;;;5057503;28;20710;-76
2022/08/02 01:01:43;;;;;;;7.17;4.80;;;;;;;;;;5056615;28;20656;-76
2022/08/02 01:04:23;;;;;;;5.97;5.07;;;;;;;;;;5075078;28;20652;-76
2022/08/02 01:06:57;;;;;;;6.40;5.57;;;;;;;;;;5072919;28;20263;-76
2022/08/02 01:09:24;;;;;;;6.93;5.67;;;;;;;;;;5072817;28;20220;-76
2022/08/02 01:11:51;;;;;;;9.27;5.73;;;;;;;;;;5073001;28;20197;-76
2022/08/02 01:14:17;;;;;;;7.13;5.17;;;;;;;;;;5056190;28;20670;-76
2022/08/02 01:16:49;;;;;;;7.87;5.37;;;;;;;;;;5073259;28;20189;-76
2022/08/02 01:19:35;;;;;;;9.37;6.13;;;;;;;;;;5072748;28;20284;-76
2022/08/02 01:22:25;;;;;;;9.87;5.83;;;;;;;;;;5090840;28;20181;-76
2022/08/02 01:25:14;;;;;;;7.73;5.17;;;;;;;;;;5088567;28;20189;-76
2022/08/02 01:28:00;;;;;;;6.73;4.77;;;;;;;;;;5052713;28;20194;-76
2022/08/02 01:30:27;;;;;;;5.00;4.13;;;;;;;;;;5052662;28;20189;-76
2022/08/02 01:32:56;;;;;;;5.90;4.20;;;;;;;;;;5052980;28;20221;-76
2022/08/02 01:35:27;;;;;;;8.90;4.87;;;;;;;;;;5052794;28;20213;-76
2022/08/02 01:38:26;;;;;;;6.70;5.67;;;;;;;;;;5070578;28;20200;-76
2022/08/02 01:40:53;;;;;;;5.90;5.30;;;;;;;;;;5052562;28;20192;-76
2022/08/02 01:43:20;;;;;;;6.67;4.97;;;;;;;;;;5052493;28;20214;-76
2022/08/02 01:45:46;;;;;;;6.43;5.80;;;;;;;;;;5070585;28;20726;-76
2022/08/02 01:48:13;;;;;;;8.47;6.23;;;;;;;;;;5052543;28;20581;-76
2022/08/02 01:50:40;;;;;;;8.57;6.43;;;;;;;;;;5052377;28;20268;-76
2022/08/02 01:53:08;;;;;;;7.83;6.43;;;;;;;;;;5052642;28;20273;-76
2022/08/02 01:55:48;;;;;;;7.60;6.50;;;;;;;;;;5051976;28;20217;-76
2022/08/02 01:58:25;;;;;;;8.40;5.50;;;;;;;;;;5053736;28;20186;-76
2022/08/02 02:00:52;;;;;;;8.30;5.83;;;;;;;;;;5069993;28;20261;-76
2022/08/02 02:03:20;;;;;;;6.93;5.70;;;;;;;;;;5069869;28;20194;-76
2022/08/02 02:05:47;;;;;;;7.70;5.60;;;;;;;;;;5052141;28;20189;-76
2022/08/02 02:08:14;;;;;;;8.37;5.60;;;;;;;;;;5052433;28;20197;-76
2022/08/02 02:10:55;;;;;;;8.07;5.87;;;;;;;;;;5053949;28;20186;-76
2022/08/02 02:13:22;;;;;;;9.50;5.60;;;;;;;;;;5051795;28;20231;-76
2022/08/02 02:16:00;;;;;;;8.50;5.67;;;;;;;;;;5069507;28;20296;-76
2022/08/02 02:18:27;;;;;;;7.00;5.30;;;;;;;;;;5035174;28;20225;-76
2022/08/02 02:20:54;;;;;;;7.23;5.43;;;;;;;;;;5051919;28;20736;-76
2022/08/02 02:23:21;;;;;;;6.70;5.13;;;;;;;;;;5052111;28;20197;-76
2022/08/02 02:25:51;;;;;;;8.00;5.07;;;;;;;;;;5043102;28;20289;-76
2022/08/02 02:28:23;;;;;;;7.20;4.93;;;;;;;;;;5072267;28;20722;-76
2022/08/02 02:30:50;;;;;;;7.10;5.27;;;;;;;;;;5072059;28;20268;-76
2022/08/02 02:33:17;;;;;;;8.30;5.33;;;;;;;;;;5054965;28;20193;-76
2022/08/02 02:35:43;;;;;;;5.80;4.40;;;;;;;;;;5089698;28;20196;-76
2022/08/02 02:38:12;;;;;;;9.33;5.87;;;;;;;;;;5072359;28;20185;-76
2022/08/02 02:40:39;;;;;;;6.70;4.80;;;;;;;;;;5058945;28;20197;-76
2022/08/02 02:43:06;;;;;;;7.37;4.60;;;;;;;;;;5076126;28;20189;-76
2022/08/02 02:45:33;;;;;;;7.33;4.60;;;;;;;;;;5093913;28;20271;-76
2022/08/02 02:48:17;;;;;;;8.93;4.43;;;;;;;;;;5078383;28;20659;-76
2022/08/02 02:50:44;;;;;;;6.40;4.30;;;;;;;;;;5093996;28;20288;-76
2022/08/02 02:53:11;;;;;;;8.03;4.60;;;;;;;;;;5076149;28;20268;-76
2022/08/02 02:55:38;;;;;;;5.00;3.90;;;;;;;;;;5059396;28;20248;-76
2022/08/02 02:58:05;;;;;;;6.90;4.13;;;;;;;;;;5075883;28;20212;-76
2022/08/02 03:03:17;;;;;;;6.57;4.33;;;;;;;;;;5093784;28;20656;-76
2022/08/02 03:05:47;;;;;;;7.57;4.17;;;;;;;;;;5076301;28;20197;-76
2022/08/02 03:08:14;;;;;;;8.13;3.97;;;;;;;;;;5076190;28;20664;-76
2022/08/02 03:10:58;;;;;;;5.00;3.63;;;;;;;;;;5078100;28;20725;-76
2022/08/02 03:13:24;;;;;;;7.63;3.90;;;;;;;;;;5075708;28;20196;-76
2022/08/02 03:15:58;;;;;;;4.97;3.93;;;;;;;;;;5093388;28;20286;-76
2022/08/02 03:18:31;;;;;;;6.03;4.30;;;;;;;;;;5075398;28;20714;-76
2022/08/02 03:20:59;;;;;;;7.83;3.80;;;;;;;;;;5058950;28;20197;-75
2022/08/02 03:23:26;;;;;;;8.20;3.97;;;;;;;;;;5093828;28;20246;-76
2022/08/02 03:25:52;;;;;;;7.03;3.90;;;;;;;;;;5051277;28;20645;-76
2022/08/02 03:28:19;;;;;;;7.67;3.80;;;;;;;;;;5072901;28;20560;-76
2022/08/02 03:30:46;;;;;;;8.33;3.73;;;;;;;;;;5073046;28;20217;-76
2022/08/02 03:33:13;;;;;;;5.77;3.47;;;;;;;;;;5073058;28;20186;-76
2022/08/02 03:35:40;;;;;;;9.70;4.03;;;;;;;;;;5054995;28;20241;-76
2022/08/02 03:38:07;;;;;;;6.57;3.77;;;;;;;;;;5073253;28;20269;-76
2022/08/02 03:40:34;;;;;;;9.67;4.03;;;;;;;;;;5055278;28;20198;-76
2022/08/02 03:43:01;;;;;;;7.10;3.93;;;;;;;;;;5054789;28;20289;-76
2022/08/02 03:45:28;;;;;;;8.40;4.23;;;;;;;;;;5038568;28;20213;-76
2022/08/02 03:47:55;;;;;;;8.63;3.70;;;;;;;;;;5054616;28;20186;-76
2022/08/02 03:50:24;;;;;;;6.13;3.87;;;;;;;;;;5072719;28;20195;-76
2022/08/02 03:52:51;;;;;;;9.40;3.70;;;;;;;;;;5054959;28;20190;-76
2022/08/02 03:55:19;;;;;;;11.27;4.40;;;;;;;;;;5054468;28;20220;-75
2022/08/02 03:57:47;;;;;;;7.67;3.87;;;;;;;;;;5055217;28;20208;-76
2022/08/02 04:00:16;;;;;;;9.70;4.20;;;;;;;;;;5054646;28;20194;-75
2022/08/02 04:02:43;;;;;;;9.00;4.20;;;;;;;;;;5072435;28;20568;-76
2022/08/02 04:05:11;;;;;;;9.17;4.50;;;;;;;;;;5054858;28;20187;-75
2022/08/02 04:07:38;;;;;;;9.53;4.37;;;;;;;;;;5072301;28;20770;-75
2022/08/02 04:10:25;;;;;;;10.27;4.37;;;;;;;;;;5072123;28;20190;-75
2022/08/02 04:12:51;;;;;;;12.27;4.20;;;;;;;;;;5072555;28;20213;-75
2022/08/02 04:15:18;;;;;;;13.13;4.70;;;;;;;;;;5071635;28;20732;-76
2022/08/02 04:17:47;;;;;;;8.17;4.00;;;;;;;;;;5071874;28;20225;-75
2022/08/02 04:20:17;;;;;;;7.50;3.63;;;;;;;;;;5054397;28;20195;-76
2022/08/02 04:22:48;;;;;;;8.73;3.33;;;;;;;;;;5054536;28;20190;-75
2022/08/02 04:25:15;;;;;;;6.23;3.30;;;;;;;;;;5056669;28;20197;-75
2022/08/02 04:27:43;;;;;;;8.67;3.50;;;;;;;;;;5074174;28;20182;-76
2022/08/02 04:30:17;;;;;;;8.57;3.90;;;;;;;;;;5073805;28;20197;-75
2022/08/02 04:32:44;;;;;;;6.27;3.00;;;;;;;;;;5074117;28;20193;-75
2022/08/02 04:35:11;;;;;;;5.60;3.10;;;;;;;;;;5057814;28;20201;-75
2022/08/02 04:37:46;;;;;;;7.57;2.90;;;;;;;;;;5058462;28;20199;-76
2022/08/02 04:40:33;;;;;;;8.07;3.00;;;;;;;;;;5077165;28;20185;-75
2022/08/02 04:43:18;;;;;;;7.40;3.43;;;;;;;;;;5091864;28;20154;-75
2022/08/02 04:45:44;;;;;;;5.20;2.80;;;;;;;;;;5091954;28;20243;-75
2022/08/02 04:48:29;;;;;;;8.80;3.13;;;;;;;;;;5076871;28;20169;-75
2022/08/02 04:50:56;;;;;;;10.53;2.87;;;;;;;;;;5091570;28;20189;-75
2022/08/02 04:53:40;;;;;;;7.97;2.97;;;;;;;;;;5076679;28;20226;-75
2022/08/02 04:56:07;;;;;;;7.50;2.80;;;;;;;;;;5073875;28;20267;-75
2022/08/02 04:58:34;;;;;;;7.10;2.57;;;;;;;;;;5091720;28;20448;-75
2022/08/02 05:01:06;;;;;;;9.17;2.97;;;;;;;;;;5091051;28;20194;-76
2022/08/02 05:03:33;;;;;;;7.90;2.30;;;;;;;;;;5091429;28;20186;-75
2022/08/02 05:06:00;;;;;;;4.73;2.37;;;;;;;;;;5091371;28;20197;-75
2022/08/02 05:08:26;;;;;;;9.33;2.67;;;;;;;;;;5091631;28;20197;-75
2022/08/02 05:10:53;;;;;;;6.30;2.30;;;;;;;;;;5091374;28;20220;-75
2022/08/02 05:13:21;;;;;;;5.67;2.10;;;;;;;;;;5091131;28;20254;-75
2022/08/02 05:15:48;;;;;;;6.00;2.23;;;;;;;;;;5091299;28;20232;-75
2022/08/02 05:18:33;;;;;;;8.47;2.30;;;;;;;;;;5091047;28;20214;-75
2022/08/02 05:21:00;;;;;;;4.73;1.97;;;;;;;;;;5056881;28;20193;-75
2022/08/02 05:23:27;;;;;;;5.40;2.13;;;;;;;;;;5091621;28;20265;-75
2022/08/02 05:25:55;;;;;;;9.43;2.00;;;;;;;;;;5064692;28;20190;-76
2022/08/02 05:28:22;;;;;;;8.63;2.30;;;;;;;;;;5070873;28;20196;-75
2022/08/02 05:30:49;;;;;;;8.50;2.10;;;;;;;;;;5053164;28;20193;-75
2022/08/02 05:33:16;;;;;;;6.23;1.73;;;;;;;;;;5052953;28;20186;-75
2022/08/02 05:35:43;;;;;;;8.60;2.00;;;;;;;;;;5070660;28;20609;-75
2022/08/02 05:38:09;;;;;;;6.93;1.80;;;;;;;;;;5053037;28;20632;-75
2022/08/02 05:40:36;;;;;;;7.00;1.77;;;;;;;;;;5070424;28;20221;-75
2022/08/02 05:43:20;;;;;;;8.10;1.70;;;;;;;;;;5052475;28;20561;-76
2022/08/02 05:45:47;;;;;;;12.77;2.07;;;;;;;;;;5070926;28;20717;-76
2022/08/02 05:48:14;;;;;;;9.37;1.53;;;;;;;;;;5052791;28;20565;-75
2022/08/02 05:50:44;;;;;;;8.13;1.53;;;;;;;;;;5052879;28;20192;-74
2022/08/02 05:53:15;;;;;;;7.03;1.50;;;;;;;;;;5070568;28;20669;-75
2022/08/02 05:55:45;;;;;;;8.23;1.50;;;;;;;;;;5052622;28;20742;-75
2022/08/02 05:58:35;;;;;;;4.93;1.20;;;;;;;;;;5038377;28;20174;-75
2022/08/02 06:01:02;;;;;;;5.73;1.40;;;;;;;;;;5052683;28;20200;-75
2022/08/02 06:03:35;;;;;;;4.40;1.50;;;;;;;;;;5070065;28;20182;-75
2022/08/02 06:06:12;;;;;;;5.73;1.50;;;;;;;;;;5052488;28;20201;-75
2022/08/02 06:08:42;;;;;;;9.17;1.70;;;;;;;;;;5070076;28;20193;-75
2022/08/02 06:11:19;;;;;;;8.07;1.47;;;;;;;;;;5070442;28;20216;-75
2022/08/02 06:13:45;;;;;;;4.40;1.40;;;;;;;;;;5051489;28;20197;-75
2022/08/02 06:16:12;;;;;;;7.13;1.37;;;;;;;;;;5069975;28;20267;-75
2022/08/02 06:18:41;;;;;;;5.20;1.20;;;;;;;;;;5052127;28;20221;-75
2022/08/02 06:21:09;;;;;;;5.80;1.30;;;;;;;;;;5036114;28;20192;-74
2022/08/02 06:23:57;;;;;;;5.40;1.50;;;;;;;;;;5055170;28;20178;-74
2022/08/02 06:26:25;;;;;;;6.90;1.40;;;;;;;;;;5064147;28;20189;-75
2022/08/02 06:28:52;;;;;;;4.57;1.40;;;;;;;;;;5090094;28;20220;-75
2022/08/02 06:31:37;;;;;;;4.03;1.43;;;;;;;;;;5090036;28;20181;-75
2022/08/02 06:34:03;;;;;;;5.20;1.47;;;;;;;;;;5089016;28;20216;-75
2022/08/02 06:36:33;;;;;;;8.10;1.70;;;;;;;;;;5090041;28;20255;-75
2022/08/02 06:39:13;;;;;;;6.67;1.60;;;;;;;;;;5072019;28;20717;-75
2022/08/02 06:41:41;;;;;;;6.70;1.40;;;;;;;;;;5072339;28;20273;-75
2022/08/02 06:44:21;;;;;;;6.20;1.40;;;;;;;;;;5074263;28;20180;-74
2022/08/02 06:47:08;;;;;;;6.43;1.20;;;;;;;;;;5074862;28;20194;-75
2022/08/02 06:49:39;;;;;;;4.43;1.00;;;;;;;;;;5072263;28;20263;-75
2022/08/02 06:52:23;;;;;;;6.87;1.50;;;;;;;;;;5073991;28;20183;-75
2022/08/02 06:54:55;;;;;;;5.83;1.40;;;;;;;;;;5056544;28;20289;-75
2022/08/02 06:57:22;;;;;;;4.57;1.50;;;;;;;;;;5089741;28;20291;-75
2022/08/02 06:59:49;;;;;;;5.60;1.33;;;;;;;;;;5089799;28;20621;-75
2022/08/02 07:02:16;;;;;;;3.53;1.30;;;;;;;;;;5071924;28;20280;-75
2022/08/02 07:04:42;;;;;;;3.77;1.20;;;;;;;;;;5089804;28;20264;-75
2022/08/02 07:07:09;;;;;;;4.97;1.20;;;;;;;;;;5071886;28;20219;-75
2022/08/02 07:09:53;;;;;;;6.70;1.20;;;;;;;;;;5089635;28;20510;-75
2022/08/02 07:12:29;;;;;;;3.43;1.10;;;;;;;;;;5072778;28;20571;-75
2022/08/02 07:15:15;;;;;;;6.17;1.20;;;;;;;;;;5074662;28;20193;-76
2022/08/02 07:17:41;;;;;;;4.33;1.13;;;;;;;;;;5089253;28;20232;-75
2022/08/02 07:20:08;;;;;;;5.73;1.47;;;;;;;;;;5072269;28;20604;-73
2022/08/02 07:22:36;;;;;;;6.33;1.20;;;;;;;;;;5071420;28;20200;-74
2022/08/02 07:25:04;;;;;;;4.47;1.37;;;;;;;;;;5091435;28;20177;-74
2022/08/02 07:27:31;;;;;;;3.47;1.00;;;;;;;;;;5059001;28;20185;-73
2022/08/02 07:29:58;;;;;;;4.90;1.20;;;;;;;;;;5058821;28;20247;-74
2022/08/02 07:32:25;;;;;;;5.30;1.20;;;;;;;;;;5093365;28;20280;-74
2022/08/02 07:34:52;;;;;;;5.17;1.10;;;;;;;;;;5093196;28;20208;-74
2022/08/02 07:37:21;;;;;;;9.20;1.40;;;;;;;;;;5093044;28;20227;-74
2022/08/02 07:40:09;;;;;;;3.87;1.13;;;;;;;;;;5093370;28;20668;-75
2022/08/02 07:42:41;;;;;;;8.70;1.63;;;;;;;;;;5092959;28;20594;-75
2022/08/02 07:45:08;;;;;;;7.47;1.40;;;;;;;;;;5058658;28;20217;-75
2022/08/02 07:47:36;;;;;;;6.70;1.40;;;;;;;;;;5074561;28;20193;-75
2022/08/02 07:50:03;;;;;;;4.10;1.23;;;;;;;;;;5093119;28;20581;-76
2022/08/02 07:52:30;;;;;;;3.77;1.20;;;;;;;;;;5075277;28;20243;-76
2022/08/02 07:54:56;;;;;;;6.33;1.10;;;;;;;;;;5058570;28;20273;-75
2022/08/02 07:57:24;;;;;;;4.77;1.20;;;;;;;;;;5075097;28;20267;-76
2022/08/02 07:59:51;;;;;;;6.53;1.10;;;;;;;;;;5092676;28;20177;-76
2022/08/02 08:02:38;;;;;;;5.37;1.27;;;;;;;;;;5074383;28;20541;-76
2022/08/02 08:05:05;;;;;;;6.00;1.10;;;;;;;;;;5093203;28;20672;-76
2022/08/02 08:07:33;;;;;;;3.23;1.07;;;;;;;;;;5092902;28;20216;-76
2022/08/02 08:10:00;;;;;;;6.83;1.23;;;;;;;;;;5074860;28;20216;-76
2022/08/02 08:12:27;;;;;;;2.67;1.00;;;;;;;;;;5074645;28;20195;-76
2022/08/02 08:14:54;;;;;;;5.07;1.10;;;;;;;;;;5057946;28;20267;-75
2022/08/02 08:17:21;;;;;;;7.10;1.50;;;;;;;;;;5091994;28;20282;-76
2022/08/02 08:19:47;;;;;;;3.00;0.93;;;;;;;;;;5057915;28;20274;-76
2022/08/02 08:22:18;;;;;;;5.43;1.20;;;;;;;;;;5074005;28;20201;-75
2022/08/02 08:25:02;;;;;;;6.43;1.60;;;;;;;;;;5091370;28;20169;-76
2022/08/02 08:27:29;;;;;;;5.47;1.23;;;;;;;;;;5054388;28;20196;-76
2022/08/02 08:29:57;;;;;;;4.73;0.90;;;;;;;;;;5071864;28;20193;-76
2022/08/02 08:32:25;;;;;;;6.33;1.30;;;;;;;;;;5054556;28;20186;-76
2022/08/02 08:34:52;;;;;;;7.53;1.10;;;;;;;;;;5072141;28;20271;-75
2022/08/02 08:37:19;;;;;;;8.30;1.40;;;;;;;;;;5071193;28;20210;-76
2022/08/02 08:39:46;;;;;;;3.73;1.33;;;;;;;;;;5071734;28;20194;-75
2022/08/02 08:42:26;;;;;;;8.20;1.87;;;;;;;;;;5072191;28;20660;-76
2022/08/02 08:44:55;;;;;;;8.23;1.67;;;;;;;;;;5054062;28;20206;-76
2022/08/02 08:47:23;;;;;;;4.40;1.20;;;;;;;;;;5071708;28;20178;-76
2022/08/02 08:49:50;;;;;;;4.00;0.90;;;;;;;;;;5053855;28;20278;-76
2022/08/02 08:52:18;;;;;;;5.93;1.20;;;;;;;;;;5053704;28;20197;-76
2022/08/02 08:54:45;;;;;;;3.93;0.93;;;;;;;;;;5036988;28;20207;-74
2022/08/02 08:57:14;;;;;;;3.93;0.97;;;;;;;;;;5053993;28;20237;-74
2022/08/02 08:59:59;;;;;;;6.10;1.10;;;;;;;;;;5042597;28;20516;-75
2022/08/02 09:02:26;;;;;;;4.30;1.00;;;;;;;;;;5053710;28;20707;-75
2022/08/02 09:05:11;;;;;;;6.53;1.40;;;;;;;;;;5056569;28;20296;-75
2022/08/02 09:07:40;;;;;;;8.30;1.63;;;;;;;;;;5053669;28;20198;-75
2022/08/02 09:10:31;;;;;;;5.30;0.93;;;;;;;;;;5056296;28;20174;-74
2022/08/02 09:13:05;;;;;;;6.57;1.10;;;;;;;;;;5036427;28;20206;-75
2022/08/02 09:15:52;;;;;;;5.80;1.17;;;;;;;;;;5071178;28;20224;-75
2022/08/02 09:18:19;;;;;;;3.93;0.90;;;;;;;;;;5052763;28;20246;-75
2022/08/02 09:20:52;;;;;;;6.03;1.20;;;;;;;;;;5053261;28;20188;-75
2022/08/02 09:23:22;;;;;;;3.57;1.10;;;;;;;;;;5053014;28;20599;-75
2022/08/02 09:26:01;;;;;;;4.83;1.10;;;;;;;;;;5061566;28;20186;-75
2022/08/02 09:28:33;;;;;;;4.23;1.10;;;;;;;;;;5073990;28;20269;-75
2022/08/02 09:31:06;;;;;;;3.43;1.03;;;;;;;;;;5073360;28;20189;-75
2022/08/02 09:33:33;;;;;;;5.13;1.20;;;;;;;;;;5091099;28;20665;-75
2022/08/02 09:36:00;;;;;;;3.43;1.10;;;;;;;;;;5090879;28;20587;-74
2022/08/02 09:38:33;;;;;;;3.03;1.00;;;;;;;;;;5091088;28;20217;-74
2022/08/02 09:41:00;;;;;;;4.37;1.40;;;;;;;;;;5073000;28;20741;-74
2022/08/02 09:43:34;;;;;;;5.33;1.40;;;;;;;;;;5056368;28;20213;-74
2022/08/02 09:46:10;;;;;;;5.30;1.60;;;;;;;;;;5090931;28;20181;-75
2022/08/02 09:48:50;;;;;;;4.43;0.97;;;;;;;;;;5090467;28;20772;-74
2022/08/02 09:51:19;;;;;;;4.53;1.27;;;;;;;;;;5090365;28;20276;-74
2022/08/02 09:53:47;;;;;;;5.20;1.17;;;;;;;;;;5089604;28;20201;-75
2022/08/02 09:56:15;;;;;;;3.63;1.00;;;;;;;;;;5072805;28;20660;-74
2022/08/02 09:59:02;;;;;;;4.23;1.13;;;;;;;;;;5075798;28;20597;-74
2022/08/02 10:01:29;;;;;;;6.13;1.20;;;;;;;;;;5072602;28;20193;-75
2022/08/02 10:04:09;;;;;;;7.10;1.30;;;;;;;;;;5090589;28;20231;-74
2022/08/02 10:06:53;;;;;;;4.93;1.07;;;;;;;;;;5075651;28;20222;-75
2022/08/02 10:09:21;;;;;;;5.77;1.30;;;;;;;;;;5090257;28;20679;-75
2022/08/02 10:11:49;;;;;;;8.37;1.30;;;;;;;;;;5072993;28;20181;-74
2022/08/02 10:14:19;;;;;;;11.10;1.77;;;;;;;;;;5090301;28;20198;-73
2022/08/02 10:16:46;;;;;;;4.23;1.30;;;;;;;;;;5090407;28;20668;-74
2022/08/02 10:19:14;;;;;;;2.90;1.10;;;;;;;;;;5090177;28;20217;-75
2022/08/02 10:21:44;;;;;;;5.50;0.93;;;;;;;;;;5090087;28;20544;-75
2022/08/02 10:24:13;;;;;;;4.13;1.00;;;;;;;;;;5090010;28;20189;-74
2022/08/02 10:26:44;;;;;;;4.40;1.20;;;;;;;;;;5057779;28;20216;-75
2022/08/02 10:29:14;;;;;;;3.33;1.00;;;;;;;;;;5052276;28;20191;-76
2022/08/02 10:31:42;;;;;;;5.37;1.10;;;;;;;;;;5052163;28;20247;-76
2022/08/02 10:34:09;;;;;;;4.67;1.10;;;;;;;;;;5035583;28;20292;-75
2022/08/02 10:36:36;;;;;;;3.50;1.10;;;;;;;;;;5051969;28;20202;-76
2022/08/02 10:39:04;;;;;;;2.50;1.00;;;;;;;;;;5052479;28;20243;-75
2022/08/02 10:41:40;;;;;;;5.27;1.10;;;;;;;;;;5070386;28;20270;-75
2022/08/02 10:44:07;;;;;;;3.77;1.07;;;;;;;;;;5070359;28;20189;-74
2022/08/02 10:46:52;;;;;;;6.20;1.33;;;;;;;;;;5070038;28;20166;-75
2022/08/02 10:49:20;;;;;;;3.73;1.10;;;;;;;;;;5052466;28;20191;-75
2022/08/02 10:52:05;;;;;;;4.23;1.10;;;;;;;;;;5070061;28;20166;-76
2022/08/02 10:54:39;;;;;;;4.07;1.10;;;;;;;;;;5051850;28;20240;-75
2022/08/02 10:57:16;;;;;;;9.73;1.13;;;;;;;;;;5069934;28;20576;-75
2022/08/02 10:59:43;;;;;;;4.33;1.30;;;;;;;;;;5053489;28;20261;-75
2022/08/02 11:02:10;;;;;;;3.53;1.03;;;;;;;;;;5073754;28;20223;-75
2022/08/02 11:04:40;;;;;;;3.93;1.00;;;;;;;;;;5056083;28;20240;-76
2022/08/02 11:07:07;;;;;;;4.53;1.10;;;;;;;;;;5073642;28;20588;-75
2022/08/02 11:09:34;;;;;;;4.80;1.20;;;;;;;;;;5073681;28;20458;-76
2022/08/02 11:12:04;;;;;;;4.40;1.30;;;;;;;;;;5039369;28;20624;-75
2022/08/02 11:14:31;;;;;;;3.73;1.13;;;;;;;;;;5073978;28;20268;-76
2022/08/02 11:17:01;;;;;;;3.30;1.10;;;;;;;;;;5055133;28;20754;-75
2022/08/02 11:19:28;;;;;;;5.37;1.10;;;;;;;;;;5073486;28;20693;-76
2022/08/02 11:22:15;;;;;;;3.73;1.27;;;;;;;;;;5055362;28;20181;-76
2022/08/02 11:24:46;;;;;;;3.30;1.07;;;;;;;;;;5056717;28;20202;-76
2022/08/02 11:27:16;;;;;;;5.03;1.27;;;;;;;;;;5074171;28;20217;-76
2022/08/02 11:29:48;;;;;;;3.73;0.90;;;;;;;;;;5075231;28;20205;-76
2022/08/02 11:32:18;;;;;;;5.30;1.27;;;;;;;;;;5058860;28;20202;-75
2022/08/02 11:34:46;;;;;;;4.93;1.20;;;;;;;;;;5109183;28;20247;-75
2022/08/02 11:37:13;;;;;;;3.43;1.20;;;;;;;;;;5093091;28;20289;-76
2022/08/02 11:39:39;;;;;;;2.73;1.10;;;;;;;;;;5075243;28;20649;-76
2022/08/02 11:42:06;;;;;;;4.83;1.13;;;;;;;;;;5092934;28;20183;-76
2022/08/02 11:44:40;;;;;;;3.10;1.10;;;;;;;;;;5075082;28;20542;-75
2022/08/02 11:47:07;;;;;;;5.17;1.10;;;;;;;;;;5075065;28;20177;-75
2022/08/02 11:49:34;;;;;;;3.20;1.13;;;;;;;;;;5075233;28;20203;-75
2022/08/02 11:52:05;;;;;;;7.33;1.30;;;;;;;;;;5074677;28;20193;-76
2022/08/02 11:54:33;;;;;;;6.23;1.20;;;;;;;;;;5074906;28;20657;-76
2022/08/02 11:57:13;;;;;;;4.40;1.10;;;;;;;;;;5075017;28;20205;-76
2022/08/02 11:59:50;;;;;;;4.73;1.27;;;;;;;;;;5074421;28;20232;-76
2022/08/02 12:02:21;;;;;;;4.33;1.30;;;;;;;;;;5074883;28;20197;-76
2022/08/02 12:04:52;;;;;;;3.83;1.30;;;;;;;;;;5075036;28;20186;-77
2022/08/02 12:07:30;;;;;;;3.30;1.30;;;;;;;;;;5092296;28;20272;-77
2022/08/02 12:10:02;;;;;;;5.30;1.23;;;;;;;;;;5092613;28;20185;-76
2022/08/02 12:12:29;;;;;;;3.77;1.13;;;;;;;;;;5040356;28;20326;-74
2022/08/02 12:14:56;;;;;;;4.63;1.47;;;;;;;;;;5074612;28;20212;-76
2022/08/02 12:20:34;;;;;;;3.23;1.30;;;;;;;;;;5092555;28;20170;-75
2022/08/02 12:23:02;;;;;;;2.63;1.33;;;;;;;;;;5074327;28;20687;-76
2022/08/02 12:25:30;;;;;;;3.13;1.20;;;;;;;;;;5087898;28;20665;-76
2022/08/02 12:28:12;;;;;;;6.67;1.43;;;;;;;;;;5071861;28;20194;-76
2022/08/02 12:30:53;;;;;;;5.17;1.40;;;;;;;;;;5072262;28;20197;-76
2022/08/02 12:33:21;;;;;;;5.93;1.37;;;;;;;;;;5054312;28;20665;-77
2022/08/02 12:35:48;;;;;;;7.27;1.53;;;;;;;;;;5054270;28;20225;-76
2022/08/02 12:38:14;;;;;;;7.80;1.20;;;;;;;;;;5071631;28;20252;-76
2022/08/02 12:40:41;;;;;;;6.27;1.13;;;;;;;;;;5071804;28;20190;-76
2022/08/02 12:43:15;;;;;;;5.93;1.40;;;;;;;;;;5054245;28;20190;-76
2022/08/02 12:45:52;;;;;;;6.87;1.63;;;;;;;;;;5054274;28;20194;-76
2022/08/02 12:48:39;;;;;;;6.60;1.20;;;;;;;;;;5053982;28;20273;-77
2022/08/02 12:51:29;;;;;;;6.90;1.73;;;;;;;;;;5039535;28;20229;-77
2022/08/02 12:54:14;;;;;;;2.97;1.00;;;;;;;;;;5071613;28;20183;-76
2022/08/02 12:56:44;;;;;;;6.53;1.47;;;;;;;;;;5037348;28;20290;-77
2022/08/02 12:59:11;;;;;;;6.77;1.30;;;;;;;;;;5071610;28;20270;-77
2022/08/02 13:01:38;;;;;;;5.07;1.30;;;;;;;;;;5071440;28;20224;-76
2022/08/02 13:04:05;;;;;;;13.23;2.00;;;;;;;;;;5071313;28;20592;-77
2022/08/02 13:06:50;;;;;;;8.57;1.67;;;;;;;;;;5056328;28;20318;-76
2022/08/02 13:09:16;;;;;;;3.63;1.30;;;;;;;;;;5071187;28;20545;-76
2022/08/02 13:12:01;;;;;;;6.07;1.30;;;;;;;;;;5071151;28;20173;-77
2022/08/02 13:14:27;;;;;;;5.50;1.27;;;;;;;;;;5071442;28;20202;-76
2022/08/02 13:17:12;;;;;;;6.93;1.40;;;;;;;;;;5070771;28;20240;-76
2022/08/02 13:19:41;;;;;;;8.03;1.50;;;;;;;;;;5037039;28;20248;-76
2022/08/02 13:22:07;;;;;;;7.43;1.43;;;;;;;;;;5070477;28;20585;-76
2022/08/02 13:24:37;;;;;;;5.07;1.13;;;;;;;;;;5070895;28;20201;-76
2022/08/02 13:27:22;;;;;;;5.77;1.50;;;;;;;;;;5070577;28;20194;-77
2022/08/02 13:29:49;;;;;;;6.17;1.20;;;;;;;;;;5053067;28;20195;-76
2022/08/02 13:32:16;;;;;;;5.80;1.53;;;;;;;;;;5053120;28;20190;-76
2022/08/02 13:34:43;;;;;;;6.93;1.20;;;;;;;;;;5070647;28;20182;-76
2022/08/02 13:37:10;;;;;;;6.37;1.50;;;;;;;;;;5070558;28;20649;-76
2022/08/02 13:39:37;;;;;;;8.20;1.67;;;;;;;;;;5052683;28;20754;-77
2022/08/02 13:42:22;;;;;;;6.73;1.73;;;;;;;;;;5070479;28;20174;-76
2022/08/02 13:44:49;;;;;;;5.93;1.70;;;;;;;;;;5070603;28;20276;-76
2022/08/02 13:47:16;;;;;;;8.77;1.77;;;;;;;;;;5070323;28;20204;-76
2022/08/02 13:50:03;;;;;;;4.77;1.00;;;;;;;;;;5070571;28;20216;-76
2022/08/02 13:52:32;;;;;;;8.00;1.30;;;;;;;;;;5070492;28;20216;-76
2022/08/02 13:54:58;;;;;;;5.37;1.20;;;;;;;;;;5070170;28;20194;-77
2022/08/02 13:57:25;;;;;;;4.30;1.20;;;;;;;;;;5070389;28;20202;-76
2022/08/02 13:59:52;;;;;;;6.90;1.43;;;;;;;;;;5052604;28;20247;-76
2022/08/02 14:02:26;;;;;;;5.97;1.10;;;;;;;;;;5070573;28;20194;-76
2022/08/02 14:04:54;;;;;;;5.77;1.40;;;;;;;;;;5036030;28;20743;-76
2022/08/02 14:07:21;;;;;;;5.87;1.33;;;;;;;;;;5052368;28;20228;-76
2022/08/02 14:09:48;;;;;;;6.43;1.13;;;;;;;;;;5069981;28;20649;-76
2022/08/02 14:12:14;;;;;;;5.00;1.20;;;;;;;;;;5070078;28;20190;-76
2022/08/02 14:14:42;;;;;;;4.13;1.10;;;;;;;;;;5052407;28;20491;-76
2022/08/02 14:17:10;;;;;;;4.43;1.30;;;;;;;;;;5051803;28;20572;-76
2022/08/02 14:19:37;;;;;;;4.23;1.10;;;;;;;;;;5051917;28;20201;-76
2022/08/02 14:22:21;;;;;;;5.50;1.20;;;;;;;;;;5037752;28;20274;-76
2022/08/02 14:24:51;;;;;;;8.60;1.60;;;;;;;;;;5052787;28;20193;-76
2022/08/02 14:27:35;;;;;;;6.67;1.17;;;;;;;;;;5040416;28;20166;-76
2022/08/02 14:30:05;;;;;;;7.60;1.20;;;;;;;;;;5052835;28;20221;-76
2022/08/02 14:32:50;;;;;;;3.30;1.30;;;;;;;;;;5054432;28;20599;-76
2022/08/02 14:35:16;;;;;;;6.63;1.27;;;;;;;;;;5069047;28;20277;-76
2022/08/02 14:37:43;;;;;;;9.00;1.63;;;;;;;;;;5051977;28;20212;-75
2022/08/02 14:40:10;;;;;;;5.83;1.30;;;;;;;;;;5068236;28;20293;-76
2022/08/02 14:42:54;;;;;;;3.80;1.10;;;;;;;;;;5069577;28;20573;-76
2022/08/02 14:45:21;;;;;;;5.97;1.60;;;;;;;;;;5051858;28;20705;-75
2022/08/02 14:47:48;;;;;;;6.53;1.20;;;;;;;;;;5069483;28;20657;-75
2022/08/02 14:50:16;;;;;;;10.33;1.57;;;;;;;;;;5052066;28;20194;-76
2022/08/02 14:52:44;;;;;;;4.63;1.17;;;;;;;;;;5052183;28;20220;-75
2022/08/02 14:55:14;;;;;;;6.60;1.10;;;;;;;;;;5052210;28;20194;-76
2022/08/02 14:57:42;;;;;;;4.50;1.30;;;;;;;;;;5069237;28;20206;-75
2022/08/02 15:00:27;;;;;;;5.87;1.20;;;;;;;;;;5069684;28;20163;-75
2022/08/02 15:02:55;;;;;;;5.77;1.20;;;;;;;;;;5051418;28;20194;-75
2022/08/02 15:05:39;;;;;;;4.57;1.20;;;;;;;;;;5069295;28;20265;-75
2022/08/02 15:08:06;;;;;;;3.40;1.10;;;;;;;;;;5069767;28;20190;-75
2022/08/02 15:10:33;;;;;;;6.10;1.27;;;;;;;;;;5051677;28;20190;-76
2022/08/02 15:13:00;;;;;;;6.20;1.50;;;;;;;;;;5069330;28;20701;-75